sensor_id;sensor_type;location;lat;lon;timestamp;P1;durP1;ratioP1;P2;durP2;ratioP2
20535;SDS011;10426;49.420;8.390;2023-01-26T00:00:43;28.75;;;23.05;;
20535;SDS011;10426;49.420;8.390;2023-01-26T00:03:09;26.42;;;21.98;;
20535;SDS011;10426;49.420;8.390;2023-01-26T00:05:36;28.42;;;22.25;;
20535;SDS011;10426;49.420;8.390;2023-01-26T00:08:03;29.23;;;22.83;;
20535;SDS011;10426;49.420;8.390;2023-01-26T00:10:31;29.15;;;21.85;;
20535;SDS011;10426;49.420;8.390;2023-01-26T00:12:57;28.15;;;22.10;;
20535;SDS011;10426;49.420;8.390;2023-01-26T00:15:24;25.52;;;20.35;;
20535;SDS011;10426;49.420;8.390;2023-01-26T00:17:51;25.42;;;20.58;;
20535;SDS011;10426;49.420;8.390;2023-01-26T00:20:17;23.92;;;20.20;;
20535;SDS011;10426;49.420;8.390;2023-01-26T00:22:44;25.38;;;20.45;;
20535;SDS011;10426;49.420;8.390;2023-01-26T00:25:11;23.85;;;20.17;;
20535;SDS011;10426;49.420;8.390;2023-01-26T00:27:38;22.65;;;18.98;;
20535;SDS011;10426;49.420;8.390;2023-01-26T00:30:05;23.02;;;19.00;;
20535;SDS011;10426;49.420;8.390;2023-01-26T00:32:33;25.83;;;19.90;;
20535;SDS011;10426;49.420;8.390;2023-01-26T00:35:00;23.80;;;19.92;;
20535;SDS011;10426;49.420;8.390;2023-01-26T00:37:26;22.15;;;18.83;;
20535;SDS011;10426;49.420;8.390;2023-01-26T00:39:53;26.50;;;21.30;;
20535;SDS011;10426;49.420;8.390;2023-01-26T00:42:20;25.92;;;20.45;;
20535;SDS011;10426;49.420;8.390;2023-01-26T00:44:49;24.10;;;19.80;;
20535;SDS011;10426;49.420;8.390;2023-01-26T00:47:17;23.63;;;18.30;;
20535;SDS011;10426;49.420;8.390;2023-01-26T00:49:44;21.17;;;17.60;;
20535;SDS011;10426;49.420;8.390;2023-01-26T00:52:10;21.40;;;17.60;;
20535;SDS011;10426;49.420;8.390;2023-01-26T00:54:37;25.58;;;19.10;;
20535;SDS011;10426;49.420;8.390;2023-01-26T00:57:04;22.02;;;17.33;;
20535;SDS011;10426;49.420;8.390;2023-01-26T00:59:31;20.38;;;17.58;;
20535;SDS011;10426;49.420;8.390;2023-01-26T01:01:59;20.58;;;18.02;;
20535;SDS011;10426;49.420;8.390;2023-01-26T01:04:27;23.45;;;18.15;;
20535;SDS011;10426;49.420;8.390;2023-01-26T01:06:54;20.85;;;17.67;;
20535;SDS011;10426;49.420;8.390;2023-01-26T01:09:20;22.45;;;17.75;;
20535;SDS011;10426;49.420;8.390;2023-01-26T01:11:47;24.45;;;18.67;;
20535;SDS011;10426;49.420;8.390;2023-01-26T01:14:14;23.25;;;17.88;;
20535;SDS011;10426;49.420;8.390;2023-01-26T01:16:41;22.60;;;17.95;;
20535;SDS011;10426;49.420;8.390;2023-01-26T01:19:09;23.38;;;18.50;;
20535;SDS011;10426;49.420;8.390;2023-01-26T01:21:38;21.27;;;18.35;;
20535;SDS011;10426;49.420;8.390;2023-01-26T01:24:05;21.45;;;17.48;;
20535;SDS011;10426;49.420;8.390;2023-01-26T01:26:32;21.58;;;17.92;;
20535;SDS011;10426;49.420;8.390;2023-01-26T01:28:58;18.17;;;15.95;;
20535;SDS011;10426;49.420;8.390;2023-01-26T01:31:25;20.03;;;16.30;;
20535;SDS011;10426;49.420;8.390;2023-01-26T01:33:54;21.27;;;17.30;;
20535;SDS011;10426;49.420;8.390;2023-01-26T01:36:22;21.15;;;16.80;;
20535;SDS011;10426;49.420;8.390;2023-01-26T01:38:49;21.15;;;17.20;;
20535;SDS011;10426;49.420;8.390;2023-01-26T01:41:16;20.98;;;16.70;;
20535;SDS011;10426;49.420;8.390;2023-01-26T01:43:43;20.88;;;17.02;;
20535;SDS011;10426;49.420;8.390;2023-01-26T01:46:11;20.23;;;16.70;;
20535;SDS011;10426;49.420;8.390;2023-01-26T01:48:41;22.98;;;17.35;;
20535;SDS011;10426;49.420;8.390;2023-01-26T01:51:11;20.30;;;16.55;;
20535;SDS011;10426;49.420;8.390;2023-01-26T01:53:40;21.85;;;16.83;;
20535;SDS011;10426;49.420;8.390;2023-01-26T01:56:10;21.75;;;16.48;;
20535;SDS011;10426;49.420;8.390;2023-01-26T01:58:38;20.17;;;16.83;;
20535;SDS011;10426;49.420;8.390;2023-01-26T02:01:06;22.98;;;17.42;;
20535;SDS011;10426;49.420;8.390;2023-01-26T02:03:33;23.48;;;17.98;;
20535;SDS011;10426;49.420;8.390;2023-01-26T02:06:02;22.83;;;17.23;;
20535;SDS011;10426;49.420;8.390;2023-01-26T02:08:30;22.65;;;17.25;;
20535;SDS011;10426;49.420;8.390;2023-01-26T02:11:01;23.05;;;17.85;;
20535;SDS011;10426;49.420;8.390;2023-01-26T02:13:30;23.83;;;17.57;;
20535;SDS011;10426;49.420;8.390;2023-01-26T02:15:57;22.88;;;17.17;;
20535;SDS011;10426;49.420;8.390;2023-01-26T02:18:24;23.75;;;16.75;;
20535;SDS011;10426;49.420;8.390;2023-01-26T02:20:52;21.73;;;15.80;;
20535;SDS011;10426;49.420;8.390;2023-01-26T02:23:22;22.33;;;16.27;;
20535;SDS011;10426;49.420;8.390;2023-01-26T02:26:05;21.67;;;16.08;;
20535;SDS011;10426;49.420;8.390;2023-01-26T02:28:31;20.80;;;15.63;;
20535;SDS011;10426;49.420;8.390;2023-01-26T02:30:58;19.75;;;14.80;;
20535;SDS011;10426;49.420;8.390;2023-01-26T02:33:25;21.40;;;15.60;;
20535;SDS011;10426;49.420;8.390;2023-01-26T02:35:52;21.67;;;15.47;;
20535;SDS011;10426;49.420;8.390;2023-01-26T02:38:20;20.05;;;15.68;;
20535;SDS011;10426;49.420;8.390;2023-01-26T02:40:48;22.48;;;16.20;;
20535;SDS011;10426;49.420;8.390;2023-01-26T02:43:17;21.73;;;15.93;;
20535;SDS011;10426;49.420;8.390;2023-01-26T02:45:42;21.60;;;15.43;;
20535;SDS011;10426;49.420;8.390;2023-01-26T02:48:09;18.58;;;14.80;;
20535;SDS011;10426;49.420;8.390;2023-01-26T02:50:36;19.90;;;14.50;;
20535;SDS011;10426;49.420;8.390;2023-01-26T02:53:02;19.30;;;14.32;;
20535;SDS011;10426;49.420;8.390;2023-01-26T02:55:29;20.52;;;14.38;;
20535;SDS011;10426;49.420;8.390;2023-01-26T02:57:56;15.90;;;13.73;;
20535;SDS011;10426;49.420;8.390;2023-01-26T03:00:25;16.75;;;13.70;;
20535;SDS011;10426;49.420;8.390;2023-01-26T03:02:52;19.15;;;14.52;;
20535;SDS011;10426;49.420;8.390;2023-01-26T03:05:19;17.35;;;14.18;;
20535;SDS011;10426;49.420;8.390;2023-01-26T03:07:46;17.02;;;14.27;;
20535;SDS011;10426;49.420;8.390;2023-01-26T03:10:13;18.75;;;15.23;;
20535;SDS011;10426;49.420;8.390;2023-01-26T03:12:41;17.65;;;14.48;;
20535;SDS011;10426;49.420;8.390;2023-01-26T03:15:08;21.35;;;15.73;;
20535;SDS011;10426;49.420;8.390;2023-01-26T03:18:00;18.85;;;15.10;;
20535;SDS011;10426;49.420;8.390;2023-01-26T03:21:01;18.83;;;15.10;;
20535;SDS011;10426;49.420;8.390;2023-01-26T03:23:45;18.75;;;14.77;;
20535;SDS011;10426;49.420;8.390;2023-01-26T03:26:29;17.73;;;14.60;;
20535;SDS011;10426;49.420;8.390;2023-01-26T03:29:13;18.88;;;14.88;;
20535;SDS011;10426;49.420;8.390;2023-01-26T03:31:40;21.30;;;15.75;;
20535;SDS011;10426;49.420;8.390;2023-01-26T03:34:08;17.77;;;14.70;;
20535;SDS011;10426;49.420;8.390;2023-01-26T03:36:35;19.98;;;16.02;;
20535;SDS011;10426;49.420;8.390;2023-01-26T03:39:02;18.23;;;15.00;;
20535;SDS011;10426;49.420;8.390;2023-01-26T03:41:29;19.45;;;15.50;;
20535;SDS011;10426;49.420;8.390;2023-01-26T03:44:13;21.30;;;15.95;;
20535;SDS011;10426;49.420;8.390;2023-01-26T03:46:57;20.10;;;15.63;;
20535;SDS011;10426;49.420;8.390;2023-01-26T03:49:43;20.13;;;15.65;;
20535;SDS011;10426;49.420;8.390;2023-01-26T03:52:27;19.60;;;15.25;;
20535;SDS011;10426;49.420;8.390;2023-01-26T03:55:11;20.05;;;15.93;;
20535;SDS011;10426;49.420;8.390;2023-01-26T03:57:56;20.40;;;15.40;;
20535;SDS011;10426;49.420;8.390;2023-01-26T04:00:22;18.45;;;14.70;;
20535;SDS011;10426;49.420;8.390;2023-01-26T04:02:49;18.10;;;14.52;;
20535;SDS011;10426;49.420;8.390;2023-01-26T04:05:34;18.90;;;14.90;;
20535;SDS011;10426;49.420;8.390;2023-01-26T04:08:18;19.10;;;15.27;;
20535;SDS011;10426;49.420;8.390;2023-01-26T04:10:48;17.30;;;15.05;;
20535;SDS011;10426;49.420;8.390;2023-01-26T04:13:16;19.38;;;15.23;;
20535;SDS011;10426;49.420;8.390;2023-01-26T04:16:01;18.92;;;13.43;;
20535;SDS011;10426;49.420;8.390;2023-01-26T04:18:45;15.63;;;12.97;;
20535;SDS011;10426;49.420;8.390;2023-01-26T04:21:30;16.48;;;13.45;;
20535;SDS011;10426;49.420;8.390;2023-01-26T04:23:58;16.80;;;13.88;;
20535;SDS011;10426;49.420;8.390;2023-01-26T04:26:26;17.77;;;13.98;;
20535;SDS011;10426;49.420;8.390;2023-01-26T04:29:00;17.23;;;13.40;;
20535;SDS011;10426;49.420;8.390;2023-01-26T04:31:27;17.47;;;13.90;;
20535;SDS011;10426;49.420;8.390;2023-01-26T04:33:54;16.88;;;13.88;;
20535;SDS011;10426;49.420;8.390;2023-01-26T04:36:20;17.42;;;14.02;;
20535;SDS011;10426;49.420;8.390;2023-01-26T04:38:48;16.70;;;13.57;;
20535;SDS011;10426;49.420;8.390;2023-01-26T04:41:15;16.27;;;13.25;;
20535;SDS011;10426;49.420;8.390;2023-01-26T04:43:41;16.70;;;13.30;;
20535;SDS011;10426;49.420;8.390;2023-01-26T04:46:08;17.13;;;13.43;;
20535;SDS011;10426;49.420;8.390;2023-01-26T04:48:35;14.73;;;12.50;;
20535;SDS011;10426;49.420;8.390;2023-01-26T04:51:03;12.43;;;11.20;;
20535;SDS011;10426;49.420;8.390;2023-01-26T04:53:30;12.07;;;10.50;;
20535;SDS011;10426;49.420;8.390;2023-01-26T04:55:58;10.30;;;8.98;;
20535;SDS011;10426;49.420;8.390;2023-01-26T04:58:25;10.52;;;9.43;;
20535;SDS011;10426;49.420;8.390;2023-01-26T05:00:52;10.80;;;9.70;;
20535;SDS011;10426;49.420;8.390;2023-01-26T05:03:19;10.00;;;9.00;;
20535;SDS011;10426;49.420;8.390;2023-01-26T05:05:47;10.68;;;9.57;;
20535;SDS011;10426;49.420;8.390;2023-01-26T05:08:13;9.95;;;8.95;;
20535;SDS011;10426;49.420;8.390;2023-01-26T05:10:40;9.87;;;8.87;;
20535;SDS011;10426;49.420;8.390;2023-01-26T05:13:08;9.60;;;8.70;;
20535;SDS011;10426;49.420;8.390;2023-01-26T05:15:35;8.82;;;8.02;;
20535;SDS011;10426;49.420;8.390;2023-01-26T05:18:02;7.80;;;7.10;;
20535;SDS011;10426;49.420;8.390;2023-01-26T05:20:28;8.40;;;7.50;;
20535;SDS011;10426;49.420;8.390;2023-01-26T05:22:55;7.95;;;7.25;;
20535;SDS011;10426;49.420;8.390;2023-01-26T05:25:22;8.65;;;7.75;;
20535;SDS011;10426;49.420;8.390;2023-01-26T05:27:48;8.00;;;7.20;;
20535;SDS011;10426;49.420;8.390;2023-01-26T05:30:17;7.07;;;6.20;;
20535;SDS011;10426;49.420;8.390;2023-01-26T05:32:43;8.07;;;6.67;;
20535;SDS011;10426;49.420;8.390;2023-01-26T05:35:10;7.35;;;6.65;;
20535;SDS011;10426;49.420;8.390;2023-01-26T05:37:36;7.13;;;6.43;;
20535;SDS011;10426;49.420;8.390;2023-01-26T05:40:03;7.85;;;7.07;;
20535;SDS011;10426;49.420;8.390;2023-01-26T05:42:30;7.60;;;6.80;;
20535;SDS011;10426;49.420;8.390;2023-01-26T05:44:57;7.65;;;6.90;;
20535;SDS011;10426;49.420;8.390;2023-01-26T05:47:25;8.05;;;7.35;;
20535;SDS011;10426;49.420;8.390;2023-01-26T05:49:51;8.05;;;7.25;;
20535;SDS011;10426;49.420;8.390;2023-01-26T05:52:19;7.20;;;6.50;;
20535;SDS011;10426;49.420;8.390;2023-01-26T05:54:45;7.82;;;7.13;;
20535;SDS011;10426;49.420;8.390;2023-01-26T05:57:12;7.47;;;6.78;;
20535;SDS011;10426;49.420;8.390;2023-01-26T05:59:38;7.78;;;7.07;;
20535;SDS011;10426;49.420;8.390;2023-01-26T06:02:05;7.80;;;7.03;;
20535;SDS011;10426;49.420;8.390;2023-01-26T06:04:33;8.27;;;7.47;;
20535;SDS011;10426;49.420;8.390;2023-01-26T06:06:59;8.88;;;7.57;;
20535;SDS011;10426;49.420;8.390;2023-01-26T06:09:26;7.72;;;6.93;;
20535;SDS011;10426;49.420;8.390;2023-01-26T06:11:53;8.43;;;7.63;;
20535;SDS011;10426;49.420;8.390;2023-01-26T06:14:19;8.43;;;7.60;;
20535;SDS011;10426;49.420;8.390;2023-01-26T06:16:46;8.85;;;8.05;;
20535;SDS011;10426;49.420;8.390;2023-01-26T06:19:12;9.00;;;8.10;;
20535;SDS011;10426;49.420;8.390;2023-01-26T06:21:40;10.25;;;8.68;;
20535;SDS011;10426;49.420;8.390;2023-01-26T06:24:07;9.15;;;8.25;;
20535;SDS011;10426;49.420;8.390;2023-01-26T06:26:34;9.52;;;8.63;;
20535;SDS011;10426;49.420;8.390;2023-01-26T06:29:00;9.20;;;8.30;;
20535;SDS011;10426;49.420;8.390;2023-01-26T06:31:27;9.13;;;8.23;;
20535;SDS011;10426;49.420;8.390;2023-01-26T06:33:54;9.00;;;8.13;;
20535;SDS011;10426;49.420;8.390;2023-01-26T06:36:21;9.45;;;8.40;;
20535;SDS011;10426;49.420;8.390;2023-01-26T06:38:50;9.50;;;8.50;;
20535;SDS011;10426;49.420;8.390;2023-01-26T06:41:17;9.40;;;8.45;;
20535;SDS011;10426;49.420;8.390;2023-01-26T06:43:44;9.30;;;8.40;;
20535;SDS011;10426;49.420;8.390;2023-01-26T06:46:11;9.77;;;8.77;;
20535;SDS011;10426;49.420;8.390;2023-01-26T06:48:38;10.75;;;9.65;;
20535;SDS011;10426;49.420;8.390;2023-01-26T06:53:51;11.35;;;10.13;;
20535;SDS011;10426;49.420;8.390;2023-01-26T06:56:18;12.07;;;10.82;;
20535;SDS011;10426;49.420;8.390;2023-01-26T06:58:44;11.70;;;10.50;;
20535;SDS011;10426;49.420;8.390;2023-01-26T07:01:12;10.63;;;9.50;;
20535;SDS011;10426;49.420;8.390;2023-01-26T07:03:40;10.85;;;9.80;;
20535;SDS011;10426;49.420;8.390;2023-01-26T07:06:06;11.00;;;9.80;;
20535;SDS011;10426;49.420;8.390;2023-01-26T07:08:36;10.63;;;9.52;;
20535;SDS011;10426;49.420;8.390;2023-01-26T07:11:04;10.90;;;9.80;;
20535;SDS011;10426;49.420;8.390;2023-01-26T07:13:31;10.23;;;9.23;;
20535;SDS011;10426;49.420;8.390;2023-01-26T07:16:01;9.15;;;8.27;;
20535;SDS011;10426;49.420;8.390;2023-01-26T07:18:27;9.95;;;8.95;;
20535;SDS011;10426;49.420;8.390;2023-01-26T07:20:58;9.80;;;8.80;;
20535;SDS011;10426;49.420;8.390;2023-01-26T07:23:25;9.45;;;8.55;;
20535;SDS011;10426;49.420;8.390;2023-01-26T07:25:51;8.73;;;7.93;;
20535;SDS011;10426;49.420;8.390;2023-01-26T07:28:19;9.32;;;7.70;;
20535;SDS011;10426;49.420;8.390;2023-01-26T07:30:46;8.02;;;7.30;;
20535;SDS011;10426;49.420;8.390;2023-01-26T07:33:13;7.57;;;6.90;;
20535;SDS011;10426;49.420;8.390;2023-01-26T07:35:40;7.00;;;6.40;;
20535;SDS011;10426;49.420;8.390;2023-01-26T07:38:06;7.45;;;6.60;;
20535;SDS011;10426;49.420;8.390;2023-01-26T07:40:33;6.78;;;6.18;;
20535;SDS011;10426;49.420;8.390;2023-01-26T07:43:00;7.75;;;7.05;;
20535;SDS011;10426;49.420;8.390;2023-01-26T07:45:27;8.43;;;7.63;;
20535;SDS011;10426;49.420;8.390;2023-01-26T07:47:54;8.00;;;7.30;;
20535;SDS011;10426;49.420;8.390;2023-01-26T07:50:21;7.70;;;7.00;;
20535;SDS011;10426;49.420;8.390;2023-01-26T07:52:50;7.90;;;7.20;;
20535;SDS011;10426;49.420;8.390;2023-01-26T07:55:17;7.38;;;6.75;;
20535;SDS011;10426;49.420;8.390;2023-01-26T07:57:46;7.32;;;6.65;;
20535;SDS011;10426;49.420;8.390;2023-01-26T08:00:13;7.10;;;6.55;;
20535;SDS011;10426;49.420;8.390;2023-01-26T08:02:41;6.87;;;6.27;;
20535;SDS011;10426;49.420;8.390;2023-01-26T08:05:08;6.50;;;6.00;;
20535;SDS011;10426;49.420;8.390;2023-01-26T08:07:34;6.60;;;6.10;;
20535;SDS011;10426;49.420;8.390;2023-01-26T08:10:01;6.00;;;5.53;;
20535;SDS011;10426;49.420;8.390;2023-01-26T08:12:28;6.40;;;5.90;;
20535;SDS011;10426;49.420;8.390;2023-01-26T08:14:55;6.60;;;6.00;;
20535;SDS011;10426;49.420;8.390;2023-01-26T08:17:21;6.10;;;5.70;;
20535;SDS011;10426;49.420;8.390;2023-01-26T08:19:49;6.63;;;6.10;;
20535;SDS011;10426;49.420;8.390;2023-01-26T08:22:16;7.00;;;6.47;;
20535;SDS011;10426;49.420;8.390;2023-01-26T08:24:42;7.32;;;6.72;;
20535;SDS011;10426;49.420;8.390;2023-01-26T08:27:09;7.68;;;7.00;;
20535;SDS011;10426;49.420;8.390;2023-01-26T08:29:35;6.00;;;5.60;;
20535;SDS011;10426;49.420;8.390;2023-01-26T08:32:02;7.20;;;6.60;;
20535;SDS011;10426;49.420;8.390;2023-01-26T08:34:29;6.15;;;5.65;;
20535;SDS011;10426;49.420;8.390;2023-01-26T08:36:57;5.57;;;5.03;;
20535;SDS011;10426;49.420;8.390;2023-01-26T08:39:23;5.38;;;4.90;;
20535;SDS011;10426;49.420;8.390;2023-01-26T08:41:50;6.15;;;5.65;;
20535;SDS011;10426;49.420;8.390;2023-01-26T08:44:16;7.60;;;6.90;;
20535;SDS011;10426;49.420;8.390;2023-01-26T08:46:43;7.70;;;6.90;;
20535;SDS011;10426;49.420;8.390;2023-01-26T08:49:10;7.60;;;6.90;;
20535;SDS011;10426;49.420;8.390;2023-01-26T08:51:36;7.07;;;6.18;;
20535;SDS011;10426;49.420;8.390;2023-01-26T08:54:05;5.90;;;5.40;;
20535;SDS011;10426;49.420;8.390;2023-01-26T08:56:32;6.30;;;5.70;;
20535;SDS011;10426;49.420;8.390;2023-01-26T08:58:59;4.90;;;4.43;;
20535;SDS011;10426;49.420;8.390;2023-01-26T09:01:26;4.43;;;4.13;;
20535;SDS011;10426;49.420;8.390;2023-01-26T09:03:52;4.50;;;4.10;;
20535;SDS011;10426;49.420;8.390;2023-01-26T09:06:20;4.40;;;4.10;;
20535;SDS011;10426;49.420;8.390;2023-01-26T09:08:47;4.30;;;4.10;;
20535;SDS011;10426;49.420;8.390;2023-01-26T09:11:15;4.10;;;3.80;;
20535;SDS011;10426;49.420;8.390;2023-01-26T09:13:42;4.53;;;4.22;;
20535;SDS011;10426;49.420;8.390;2023-01-26T09:16:11;4.60;;;4.30;;
20535;SDS011;10426;49.420;8.390;2023-01-26T09:18:39;4.40;;;4.10;;
20535;SDS011;10426;49.420;8.390;2023-01-26T09:21:06;4.97;;;4.68;;
20535;SDS011;10426;49.420;8.390;2023-01-26T09:23:33;4.40;;;4.10;;
20535;SDS011;10426;49.420;8.390;2023-01-26T09:26:00;4.03;;;3.72;;
20535;SDS011;10426;49.420;8.390;2023-01-26T09:28:28;3.90;;;3.70;;
20535;SDS011;10426;49.420;8.390;2023-01-26T09:30:55;3.85;;;3.55;;
20535;SDS011;10426;49.420;8.390;2023-01-26T09:33:22;4.18;;;3.97;;
20535;SDS011;10426;49.420;8.390;2023-01-26T09:35:49;4.10;;;3.80;;
20535;SDS011;10426;49.420;8.390;2023-01-26T09:38:16;3.13;;;3.03;;
20535;SDS011;10426;49.420;8.390;2023-01-26T09:40:44;3.10;;;2.90;;
20535;SDS011;10426;49.420;8.390;2023-01-26T09:43:23;3.00;;;2.90;;
20535;SDS011;10426;49.420;8.390;2023-01-26T09:45:53;2.80;;;2.70;;
20535;SDS011;10426;49.420;8.390;2023-01-26T09:48:26;3.00;;;2.88;;
20535;SDS011;10426;49.420;8.390;2023-01-26T09:50:59;3.30;;;3.10;;
20535;SDS011;10426;49.420;8.390;2023-01-26T09:53:27;3.22;;;3.03;;
20535;SDS011;10426;49.420;8.390;2023-01-26T09:55:59;3.00;;;2.90;;
20535;SDS011;10426;49.420;8.390;2023-01-26T09:58:28;2.90;;;2.80;;
20535;SDS011;10426;49.420;8.390;2023-01-26T10:00:58;3.30;;;3.20;;
20535;SDS011;10426;49.420;8.390;2023-01-26T10:03:27;4.00;;;3.70;;
20535;SDS011;10426;49.420;8.390;2023-01-26T10:05:56;4.68;;;4.38;;
20535;SDS011;10426;49.420;8.390;2023-01-26T10:08:25;3.40;;;3.20;;
20535;SDS011;10426;49.420;8.390;2023-01-26T10:10:53;4.80;;;4.50;;
20535;SDS011;10426;49.420;8.390;2023-01-26T10:13:21;3.90;;;3.60;;
20535;SDS011;10426;49.420;8.390;2023-01-26T10:15:49;3.40;;;3.20;;
20535;SDS011;10426;49.420;8.390;2023-01-26T10:18:20;11.40;;;10.20;;
20535;SDS011;10426;49.420;8.390;2023-01-26T10:20:48;5.50;;;5.10;;
20535;SDS011;10426;49.420;8.390;2023-01-26T10:23:16;4.40;;;4.10;;
20535;SDS011;10426;49.420;8.390;2023-01-26T10:25:43;4.00;;;3.70;;
20535;SDS011;10426;49.420;8.390;2023-01-26T10:28:12;4.20;;;3.95;;
20535;SDS011;10426;49.420;8.390;2023-01-26T10:30:39;4.57;;;4.17;;
20535;SDS011;10426;49.420;8.390;2023-01-26T10:33:09;4.07;;;3.72;;
20535;SDS011;10426;49.420;8.390;2023-01-26T10:35:39;4.40;;;4.00;;
20535;SDS011;10426;49.420;8.390;2023-01-26T10:40:47;5.20;;;4.80;;
20535;SDS011;10426;49.420;8.390;2023-01-26T10:43:16;5.10;;;4.70;;
20535;SDS011;10426;49.420;8.390;2023-01-26T10:45:43;4.88;;;4.57;;
20535;SDS011;10426;49.420;8.390;2023-01-26T10:48:15;6.85;;;5.10;;
20535;SDS011;10426;49.420;8.390;2023-01-26T10:50:43;4.93;;;4.53;;
20535;SDS011;10426;49.420;8.390;2023-01-26T10:53:13;5.15;;;4.75;;
20535;SDS011;10426;49.420;8.390;2023-01-26T10:55:40;5.30;;;4.80;;
20535;SDS011;10426;49.420;8.390;2023-01-26T10:58:11;4.97;;;4.68;;
20535;SDS011;10426;49.420;8.390;2023-01-26T11:00:57;5.90;;;5.40;;
20535;SDS011;10426;49.420;8.390;2023-01-26T11:03:25;5.57;;;5.18;;
20535;SDS011;10426;49.420;8.390;2023-01-26T11:06:05;5.50;;;5.10;;
20535;SDS011;10426;49.420;8.390;2023-01-26T11:08:33;5.95;;;5.53;;
20535;SDS011;10426;49.420;8.390;2023-01-26T11:11:00;5.97;;;5.47;;
20535;SDS011;10426;49.420;8.390;2023-01-26T11:13:28;6.10;;;5.70;;
20535;SDS011;10426;49.420;8.390;2023-01-26T11:16:07;6.65;;;5.65;;
20535;SDS011;10426;49.420;8.390;2023-01-26T11:18:39;5.90;;;5.40;;
20535;SDS011;10426;49.420;8.390;2023-01-26T11:21:09;5.95;;;5.55;;
20535;SDS011;10426;49.420;8.390;2023-01-26T11:23:50;6.13;;;5.63;;
20535;SDS011;10426;49.420;8.390;2023-01-26T11:26:22;6.47;;;5.90;;
20535;SDS011;10426;49.420;8.390;2023-01-26T11:28:55;6.57;;;6.05;;
20535;SDS011;10426;49.420;8.390;2023-01-26T11:31:28;7.10;;;6.50;;
20535;SDS011;10426;49.420;8.390;2023-01-26T11:33:59;7.03;;;6.50;;
20535;SDS011;10426;49.420;8.390;2023-01-26T11:36:33;6.95;;;6.40;;
20535;SDS011;10426;49.420;8.390;2023-01-26T11:39:05;7.20;;;6.60;;
20535;SDS011;10426;49.420;8.390;2023-01-26T11:41:39;7.35;;;6.75;;
20535;SDS011;10426;49.420;8.390;2023-01-26T11:44:23;7.60;;;7.00;;
20535;SDS011;10426;49.420;8.390;2023-01-26T11:46:57;8.18;;;7.43;;
20535;SDS011;10426;49.420;8.390;2023-01-26T11:49:31;8.00;;;7.20;;
20535;SDS011;10426;49.420;8.390;2023-01-26T11:52:05;8.05;;;7.40;;
20535;SDS011;10426;49.420;8.390;2023-01-26T11:54:37;7.85;;;7.20;;
20535;SDS011;10426;49.420;8.390;2023-01-26T11:57:11;12.33;;;11.03;;
20535;SDS011;10426;49.420;8.390;2023-01-26T11:59:40;14.75;;;12.88;;
20535;SDS011;10426;49.420;8.390;2023-01-26T12:02:15;10.00;;;9.10;;
20535;SDS011;10426;49.420;8.390;2023-01-26T12:04:45;9.20;;;8.32;;
20535;SDS011;10426;49.420;8.390;2023-01-26T12:07:14;9.80;;;8.90;;
20535;SDS011;10426;49.420;8.390;2023-01-26T12:09:44;9.65;;;8.82;;
20535;SDS011;10426;49.420;8.390;2023-01-26T12:12:13;9.60;;;8.70;;
20535;SDS011;10426;49.420;8.390;2023-01-26T12:14:40;9.43;;;8.52;;
20535;SDS011;10426;49.420;8.390;2023-01-26T12:17:19;9.10;;;8.30;;
20535;SDS011;10426;49.420;8.390;2023-01-26T12:19:51;8.68;;;7.88;;
20535;SDS011;10426;49.420;8.390;2023-01-26T12:22:23;7.82;;;7.22;;
20535;SDS011;10426;49.420;8.390;2023-01-26T12:24:52;8.37;;;7.57;;
20535;SDS011;10426;49.420;8.390;2023-01-26T12:27:21;9.82;;;9.02;;
20535;SDS011;10426;49.420;8.390;2023-01-26T12:29:50;8.85;;;8.05;;
20535;SDS011;10426;49.420;8.390;2023-01-26T12:32:18;8.10;;;7.40;;
20535;SDS011;10426;49.420;8.390;2023-01-26T12:34:46;9.27;;;8.48;;
20535;SDS011;10426;49.420;8.390;2023-01-26T12:40:02;8.52;;;7.78;;
20535;SDS011;10426;49.420;8.390;2023-01-26T12:42:37;8.85;;;7.95;;
20535;SDS011;10426;49.420;8.390;2023-01-26T12:45:08;13.38;;;12.07;;
20535;SDS011;10426;49.420;8.390;2023-01-26T12:47:37;12.13;;;10.93;;
20535;SDS011;10426;49.420;8.390;2023-01-26T12:50:07;10.00;;;9.00;;
20535;SDS011;10426;49.420;8.390;2023-01-26T12:52:36;8.88;;;8.07;;
20535;SDS011;10426;49.420;8.390;2023-01-26T12:55:06;12.07;;;10.87;;
20535;SDS011;10426;49.420;8.390;2023-01-26T12:57:37;13.93;;;12.50;;
20535;SDS011;10426;49.420;8.390;2023-01-26T13:00:05;11.88;;;10.50;;
20535;SDS011;10426;49.420;8.390;2023-01-26T13:02:33;10.35;;;9.30;;
20535;SDS011;10426;49.420;8.390;2023-01-26T13:05:03;11.03;;;9.93;;
20535;SDS011;10426;49.420;8.390;2023-01-26T13:07:33;11.35;;;10.20;;
20535;SDS011;10426;49.420;8.390;2023-01-26T13:10:18;10.70;;;9.60;;
20535;SDS011;10426;49.420;8.390;2023-01-26T13:12:46;9.90;;;8.90;;
20535;SDS011;10426;49.420;8.390;2023-01-26T13:15:13;11.93;;;10.68;;
20535;SDS011;10426;49.420;8.390;2023-01-26T13:17:47;11.13;;;9.75;;
20535;SDS011;10426;49.420;8.390;2023-01-26T13:20:21;10.52;;;9.52;;
20535;SDS011;10426;49.420;8.390;2023-01-26T13:22:48;10.07;;;9.17;;
20535;SDS011;10426;49.420;8.390;2023-01-26T13:25:17;10.05;;;9.15;;
20535;SDS011;10426;49.420;8.390;2023-01-26T13:27:45;10.38;;;9.38;;
20535;SDS011;10426;49.420;8.390;2023-01-26T13:30:32;10.23;;;9.32;;
20535;SDS011;10426;49.420;8.390;2023-01-26T13:33:09;9.05;;;8.25;;
20535;SDS011;10426;49.420;8.390;2023-01-26T13:35:36;9.95;;;9.10;;
20535;SDS011;10426;49.420;8.390;2023-01-26T13:38:05;9.55;;;8.63;;
20535;SDS011;10426;49.420;8.390;2023-01-26T13:40:36;9.65;;;8.77;;
20535;SDS011;10426;49.420;8.390;2023-01-26T13:43:05;9.88;;;8.88;;
20535;SDS011;10426;49.420;8.390;2023-01-26T13:45:34;9.13;;;8.32;;
20535;SDS011;10426;49.420;8.390;2023-01-26T13:48:01;9.27;;;8.30;;
20535;SDS011;10426;49.420;8.390;2023-01-26T13:50:31;9.60;;;8.70;;
20535;SDS011;10426;49.420;8.390;2023-01-26T13:52:58;9.95;;;8.93;;
20535;SDS011;10426;49.420;8.390;2023-01-26T13:55:25;9.93;;;9.00;;
20535;SDS011;10426;49.420;8.390;2023-01-26T14:00:35;11.07;;;9.98;;
20535;SDS011;10426;49.420;8.390;2023-01-26T14:03:01;9.70;;;8.80;;
20535;SDS011;10426;49.420;8.390;2023-01-26T14:05:28;11.40;;;9.50;;
20535;SDS011;10426;49.420;8.390;2023-01-26T14:07:56;12.43;;;11.13;;
20535;SDS011;10426;49.420;8.390;2023-01-26T14:10:23;10.60;;;9.60;;
20535;SDS011;10426;49.420;8.390;2023-01-26T14:12:50;10.60;;;9.30;;
20535;SDS011;10426;49.420;8.390;2023-01-26T14:15:19;11.43;;;10.15;;
20535;SDS011;10426;49.420;8.390;2023-01-26T14:17:49;11.70;;;10.50;;
20535;SDS011;10426;49.420;8.390;2023-01-26T14:20:17;12.82;;;10.52;;
20535;SDS011;10426;49.420;8.390;2023-01-26T14:22:44;12.23;;;10.93;;
20535;SDS011;10426;49.420;8.390;2023-01-26T14:25:18;12.98;;;11.13;;
20535;SDS011;10426;49.420;8.390;2023-01-26T14:27:44;12.40;;;11.10;;
20535;SDS011;10426;49.420;8.390;2023-01-26T14:30:21;12.43;;;11.05;;
20535;SDS011;10426;49.420;8.390;2023-01-26T14:32:54;13.13;;;11.77;;
20535;SDS011;10426;49.420;8.390;2023-01-26T14:35:21;12.90;;;10.65;;
20535;SDS011;10426;49.420;8.390;2023-01-26T14:37:48;13.60;;;12.20;;
20535;SDS011;10426;49.420;8.390;2023-01-26T14:40:19;13.53;;;12.03;;
20535;SDS011;10426;49.420;8.390;2023-01-26T14:42:46;13.88;;;11.60;;
20535;SDS011;10426;49.420;8.390;2023-01-26T14:45:13;13.40;;;11.30;;
20535;SDS011;10426;49.420;8.390;2023-01-26T14:47:40;13.43;;;11.90;;
20535;SDS011;10426;49.420;8.390;2023-01-26T14:50:10;14.30;;;11.88;;
20535;SDS011;10426;49.420;8.390;2023-01-26T14:52:42;13.80;;;11.80;;
20535;SDS011;10426;49.420;8.390;2023-01-26T14:55:11;14.13;;;11.73;;
20535;SDS011;10426;49.420;8.390;2023-01-26T14:57:38;13.25;;;11.43;;